Saint Marys, OH (45885)

9:26 AM EDT on September 02, 2014 (GMT -0400)
next to St Marys trucking co | Change Station
CLOSE
Current Station
Personal Weather Station
Location: St. Marys, OH
Elevation: 863 ft
Nearby Weather Stations

Elev 863 ft 40.54 °N, 84.39 °W | Updated 7 seconds ago

Partly Cloudy
Partly Cloudy
68.4 °F
Feels Like 68.4 °F
N
0.0
Wind Variable Wind from SW
Gusts 5.4 mph

Today
High -- | Low -- °F
--% Chance of Precip.
Yesterday
High -- | Low -- °F
Precip. -- in
7:05 AM 8:08 PM
Waxing Crescent, 51% visible
Pressure 29.89 in
Visibility 10.0 miles
Clouds Few 9500 ft
Dew Point 62 °F
Humidity 80%
Rainfall 0.16 in
Snow Depth Not available.
UV 1 out of 12
Pollen 2.80 out of 12
Air Quality Not available.
Flu Activity Not available.
METAR KAOH 021253Z AUTO 19005KT 10SM FEW095 21/18 A2991 RMK AO2 RAE40 SLP122 P0000 T02060183

More Conditions Fewer Conditions

Pressure 29.89 in
Visibility 10.0 miles
Clouds Few 9500 ft
Dew Point 62 °F
Humidity 80%
Rainfall 0.16 in
Snow Depth Not available.
UV 1 out of 12
Pollen 2.80 out of 12
Air Quality Not available.
Flu Activity Not available.
METAR KAOH 021253Z AUTO 19005KT 10SM FEW095 21/18 A2991 RMK AO2 RAE40 SLP122 P0000 T02060183

More Conditions Fewer Conditions

10-Day Weather Forecast

Almanac

Astronomy

Sep. 02, 2014 Rise Set
Actual Time 7:05 AM EDT 8:08 PM EDT
Civil Twilight 6:37 AM EDT 8:35 PM EDT
Nautical Twilight 6:04 AM EDT 9:09 PM EDT
Astronomical Twilight 5:29 AM EDT 9:43 PM EDT
Moon 2:50 PM EDT 12:08 AM EDT
Length of Visible Light 13h 58m
Length of Day
13h 02m
Tomorrow will be 2m 35s shorter.
Waxing Crescent, 51% of the Moon is Illuminated
Today
Waxing Crescent
Sep 8
Full
Sep 15
Last Quarter
Sep 24
New
Oct 1
First Quarter

Today's Extremes

State Highs State Lows

Community

WunderPhotos

Upload Photos

1,749,648 photos uploaded!

Nearby

Snow Depth

Station Depth Elevation
No new snow has been reported.

Earthquake Activity

City Distance Mag. Time & Date
No recent earthquake activity has been reported nearby.
Minimum magnitude displayed is 2.5.

Coastal Water Temperatures

Place Temperature
No Stations Reporting

Nearby Weather Stations